sensor_id;sensor_type;location;lat;lon;timestamp;pressure;altitude;pressure_sealevel;temperature;humidity
62510;BME280;48558;48.242;11.654;2022-12-22T00:03:35;95986.81;;;3.99;100.00
62510;BME280;48558;48.242;11.654;2022-12-22T00:08:15;95962.19;;;4.31;100.00
62510;BME280;48558;48.242;11.654;2022-12-22T00:12:56;95959.69;;;4.37;100.00
62510;BME280;48558;48.242;11.654;2022-12-22T00:17:27;95952.69;;;4.36;100.00
62510;BME280;48558;48.242;11.654;2022-12-22T00:22:17;95953.44;;;4.36;100.00
62510;BME280;48558;48.242;11.654;2022-12-22T00:26:49;95952.59;;;4.40;100.00
62510;BME280;48558;48.242;11.654;2022-12-22T00:31:21;95949.81;;;4.56;100.00
62510;BME280;48558;48.242;11.654;2022-12-22T00:35:52;95951.50;;;4.66;100.00
62510;BME280;48558;48.242;11.654;2022-12-22T00:40:27;95941.22;;;4.70;100.00
62510;BME280;48558;48.242;11.654;2022-12-22T00:45:08;95940.72;;;4.75;100.00
62510;BME280;48558;48.242;11.654;2022-12-22T00:49:40;95937.28;;;4.71;100.00
62510;BME280;48558;48.242;11.654;2022-12-22T00:54:16;95926.44;;;4.67;100.00
62510;BME280;48558;48.242;11.654;2022-12-22T00:58:50;95922.28;;;4.75;100.00
62510;BME280;48558;48.242;11.654;2022-12-22T01:03:22;95915.44;;;4.83;100.00
62510;BME280;48558;48.242;11.654;2022-12-22T01:07:54;95912.84;;;4.92;100.00
62510;BME280;48558;48.242;11.654;2022-12-22T01:12:26;95914.47;;;4.90;100.00
62510;BME280;48558;48.242;11.654;2022-12-22T01:16:57;95918.97;;;4.96;100.00
62510;BME280;48558;48.242;11.654;2022-12-22T01:21:28;95918.31;;;4.92;100.00
62510;BME280;48558;48.242;11.654;2022-12-22T01:25:59;95910.88;;;4.93;100.00
62510;BME280;48558;48.242;11.654;2022-12-22T01:30:30;95912.69;;;4.83;100.00
62510;BME280;48558;48.242;11.654;2022-12-22T01:35:02;95916.28;;;4.80;100.00
62510;BME280;48558;48.242;11.654;2022-12-22T01:39:33;95921.75;;;4.68;100.00
62510;BME280;48558;48.242;11.654;2022-12-22T01:44:12;95917.72;;;4.72;100.00
62510;BME280;48558;48.242;11.654;2022-12-22T01:48:44;95906.19;;;4.65;100.00
62510;BME280;48558;48.242;11.654;2022-12-22T01:53:19;95913.34;;;4.75;100.00
62510;BME280;48558;48.242;11.654;2022-12-22T01:57:51;95901.16;;;4.63;100.00
62510;BME280;48558;48.242;11.654;2022-12-22T02:02:23;95903.97;;;4.60;100.00
62510;BME280;48558;48.242;11.654;2022-12-22T02:06:58;95891.03;;;4.48;100.00
62510;BME280;48558;48.242;11.654;2022-12-22T02:21:20;95887.84;;;4.49;100.00
62510;BME280;48558;48.242;11.654;2022-12-22T02:26:12;95876.28;;;4.58;100.00
62510;BME280;48558;48.242;11.654;2022-12-22T02:30:47;95879.16;;;4.67;100.00
62510;BME280;48558;48.242;11.654;2022-12-22T02:35:26;95874.00;;;4.69;100.00
62510;BME280;48558;48.242;11.654;2022-12-22T02:40:31;95877.97;;;4.80;100.00
62510;BME280;48558;48.242;11.654;2022-12-22T02:45:15;95880.75;;;4.93;100.00
62510;BME280;48558;48.242;11.654;2022-12-22T02:49:56;95875.81;;;5.00;100.00
62510;BME280;48558;48.242;11.654;2022-12-22T02:54:30;95872.94;;;4.91;100.00
62510;BME280;48558;48.242;11.654;2022-12-22T02:59:02;95868.25;;;4.92;100.00
62510;BME280;48558;48.242;11.654;2022-12-22T03:03:33;95874.72;;;4.98;100.00
62510;BME280;48558;48.242;11.654;2022-12-22T03:08:04;95866.63;;;4.94;100.00
62510;BME280;48558;48.242;11.654;2022-12-22T03:12:35;95872.22;;;5.03;100.00
62510;BME280;48558;48.242;11.654;2022-12-22T03:17:06;95868.81;;;5.12;100.00
62510;BME280;48558;48.242;11.654;2022-12-22T03:21:38;95873.75;;;5.17;100.00
62510;BME280;48558;48.242;11.654;2022-12-22T03:26:10;95870.22;;;5.29;100.00
62510;BME280;48558;48.242;11.654;2022-12-22T03:30:22;95840.53;;;5.53;100.00
62510;BME280;48558;48.242;11.654;2022-12-22T03:34:34;95849.72;;;5.71;100.00
62510;BME280;48558;48.242;11.654;2022-12-22T03:38:47;95845.97;;;5.78;100.00
62510;BME280;48558;48.242;11.654;2022-12-22T03:42:59;95857.72;;;5.66;100.00
62510;BME280;48558;48.242;11.654;2022-12-22T03:47:31;95841.31;;;5.53;100.00
62510;BME280;48558;48.242;11.654;2022-12-22T03:51:46;95845.88;;;5.56;100.00
62510;BME280;48558;48.242;11.654;2022-12-22T03:55:58;95849.31;;;5.48;100.00
62510;BME280;48558;48.242;11.654;2022-12-22T04:00:26;95848.63;;;5.56;100.00
62510;BME280;48558;48.242;11.654;2022-12-22T04:04:39;95842.38;;;5.68;100.00
62510;BME280;48558;48.242;11.654;2022-12-22T04:08:51;95850.25;;;5.66;100.00
62510;BME280;48558;48.242;11.654;2022-12-22T04:13:03;95840.16;;;5.89;100.00
62510;BME280;48558;48.242;11.654;2022-12-22T04:17:16;95837.97;;;5.71;100.00
62510;BME280;48558;48.242;11.654;2022-12-22T04:21:28;95835.78;;;5.66;100.00
62510;BME280;48558;48.242;11.654;2022-12-22T04:25:41;95833.75;;;5.45;100.00
62510;BME280;48558;48.242;11.654;2022-12-22T04:29:53;95834.09;;;5.34;100.00
62510;BME280;48558;48.242;11.654;2022-12-22T04:34:05;95825.53;;;5.45;100.00
62510;BME280;48558;48.242;11.654;2022-12-22T04:38:28;95829.59;;;5.40;100.00
62510;BME280;48558;48.242;11.654;2022-12-22T04:42:40;95825.28;;;5.52;100.00
62510;BME280;48558;48.242;11.654;2022-12-22T04:46:52;95823.88;;;5.47;100.00
62510;BME280;48558;48.242;11.654;2022-12-22T04:51:05;95823.63;;;5.54;100.00
62510;BME280;48558;48.242;11.654;2022-12-22T04:55:21;95826.06;;;5.52;100.00
62510;BME280;48558;48.242;11.654;2022-12-22T04:59:33;95816.84;;;5.59;100.00
62510;BME280;48558;48.242;11.654;2022-12-22T05:03:46;95826.69;;;5.56;100.00
62510;BME280;48558;48.242;11.654;2022-12-22T05:07:58;95821.84;;;5.73;100.00
62510;BME280;48558;48.242;11.654;2022-12-22T05:12:11;95811.75;;;5.70;100.00
62510;BME280;48558;48.242;11.654;2022-12-22T05:16:42;95800.72;;;6.08;100.00
62510;BME280;48558;48.242;11.654;2022-12-22T05:20:54;95796.13;;;6.05;100.00
62510;BME280;48558;48.242;11.654;2022-12-22T05:25:07;95788.91;;;6.41;100.00
62510;BME280;48558;48.242;11.654;2022-12-22T05:29:19;95789.91;;;6.57;100.00
62510;BME280;48558;48.242;11.654;2022-12-22T05:33:32;95773.44;;;6.78;100.00
62510;BME280;48558;48.242;11.654;2022-12-22T05:37:44;95778.13;;;6.78;100.00
62510;BME280;48558;48.242;11.654;2022-12-22T05:41:56;95786.03;;;6.45;100.00
62510;BME280;48558;48.242;11.654;2022-12-22T05:46:09;95776.16;;;6.26;100.00
62510;BME280;48558;48.242;11.654;2022-12-22T05:50:23;95793.81;;;6.03;100.00
62510;BME280;48558;48.242;11.654;2022-12-22T05:54:36;95785.34;;;5.76;100.00
62510;BME280;48558;48.242;11.654;2022-12-22T05:58:48;95790.38;;;5.77;100.00
62510;BME280;48558;48.242;11.654;2022-12-22T06:03:00;95784.63;;;5.63;100.00
62510;BME280;48558;48.242;11.654;2022-12-22T06:07:23;95787.13;;;5.57;100.00
62510;BME280;48558;48.242;11.654;2022-12-22T06:11:35;95775.13;;;5.42;100.00
62510;BME280;48558;48.242;11.654;2022-12-22T06:15:48;95791.91;;;5.32;100.00
62510;BME280;48558;48.242;11.654;2022-12-22T06:20:00;95781.72;;;5.32;100.00
62510;BME280;48558;48.242;11.654;2022-12-22T06:24:13;95769.47;;;5.12;100.00
62510;BME280;48558;48.242;11.654;2022-12-22T06:28:35;95767.66;;;5.43;100.00
62510;BME280;48558;48.242;11.654;2022-12-22T06:32:47;95766.34;;;5.81;100.00
62510;BME280;48558;48.242;11.654;2022-12-22T06:37:08;95785.94;;;5.93;100.00
62510;BME280;48558;48.242;11.654;2022-12-22T06:41:20;95790.53;;;6.08;100.00
62510;BME280;48558;48.242;11.654;2022-12-22T06:45:52;95791.19;;;6.43;100.00
62510;BME280;48558;48.242;11.654;2022-12-22T06:50:14;95787.38;;;6.62;100.00
62510;BME280;48558;48.242;11.654;2022-12-22T06:54:27;95786.66;;;6.49;100.00
62510;BME280;48558;48.242;11.654;2022-12-22T06:58:39;95785.84;;;6.39;100.00
62510;BME280;48558;48.242;11.654;2022-12-22T07:02:51;95786.91;;;6.64;100.00
62510;BME280;48558;48.242;11.654;2022-12-22T07:07:04;95787.50;;;6.37;100.00
62510;BME280;48558;48.242;11.654;2022-12-22T07:11:16;95791.19;;;6.95;100.00
62510;BME280;48558;48.242;11.654;2022-12-22T07:15:28;95770.03;;;7.81;100.00
62510;BME280;48558;48.242;11.654;2022-12-22T07:19:41;95761.78;;;8.08;100.00
62510;BME280;48558;48.242;11.654;2022-12-22T07:23:53;95767.28;;;7.99;100.00
62510;BME280;48558;48.242;11.654;2022-12-22T07:28:07;95757.81;;;8.36;100.00
62510;BME280;48558;48.242;11.654;2022-12-22T07:32:26;95773.41;;;8.39;100.00
62510;BME280;48558;48.242;11.654;2022-12-22T07:36:39;95755.97;;;8.33;100.00
62510;BME280;48558;48.242;11.654;2022-12-22T07:40:58;95767.31;;;8.26;100.00
62510;BME280;48558;48.242;11.654;2022-12-22T07:45:17;95753.84;;;8.28;100.00
62510;BME280;48558;48.242;11.654;2022-12-22T07:49:30;95747.28;;;8.26;100.00
62510;BME280;48558;48.242;11.654;2022-12-22T07:54:06;95754.44;;;8.41;100.00
62510;BME280;48558;48.242;11.654;2022-12-22T07:58:29;95749.41;;;8.40;100.00
62510;BME280;48558;48.242;11.654;2022-12-22T08:02:41;95763.91;;;8.22;100.00
62510;BME280;48558;48.242;11.654;2022-12-22T08:06:54;95753.38;;;8.21;100.00
62510;BME280;48558;48.242;11.654;2022-12-22T08:11:06;95753.69;;;8.14;100.00
62510;BME280;48558;48.242;11.654;2022-12-22T08:15:19;95745.56;;;8.19;100.00
62510;BME280;48558;48.242;11.654;2022-12-22T08:19:31;95762.38;;;8.12;100.00
62510;BME280;48558;48.242;11.654;2022-12-22T08:23:43;95753.84;;;8.10;100.00
62510;BME280;48558;48.242;11.654;2022-12-22T08:27:57;95756.88;;;8.39;100.00
62510;BME280;48558;48.242;11.654;2022-12-22T08:32:10;95746.81;;;8.36;100.00
62510;BME280;48558;48.242;11.654;2022-12-22T08:36:23;95750.72;;;8.62;100.00
62510;BME280;48558;48.242;11.654;2022-12-22T08:40:35;95738.94;;;9.04;100.00
62510;BME280;48558;48.242;11.654;2022-12-22T08:44:48;95745.41;;;8.92;100.00
62510;BME280;48558;48.242;11.654;2022-12-22T08:49:04;95746.28;;;9.07;100.00
62510;BME280;48558;48.242;11.654;2022-12-22T08:53:17;95756.38;;;9.10;100.00
62510;BME280;48558;48.242;11.654;2022-12-22T08:57:49;95763.09;;;9.18;100.00
62510;BME280;48558;48.242;11.654;2022-12-22T09:02:06;95761.41;;;9.44;100.00
62510;BME280;48558;48.242;11.654;2022-12-22T09:06:20;95766.19;;;9.34;100.00
62510;BME280;48558;48.242;11.654;2022-12-22T09:10:41;95771.56;;;9.38;100.00
62510;BME280;48558;48.242;11.654;2022-12-22T09:15:01;95764.16;;;9.11;100.00
62510;BME280;48558;48.242;11.654;2022-12-22T09:19:17;95770.41;;;9.21;100.00
62510;BME280;48558;48.242;11.654;2022-12-22T09:23:30;95773.47;;;9.23;100.00
62510;BME280;48558;48.242;11.654;2022-12-22T09:27:44;95783.41;;;9.20;100.00
62510;BME280;48558;48.242;11.654;2022-12-22T09:32:06;95776.13;;;9.08;100.00
62510;BME280;48558;48.242;11.654;2022-12-22T09:36:21;95774.28;;;9.14;100.00
62510;BME280;48558;48.242;11.654;2022-12-22T09:40:33;95817.47;;;9.08;100.00
62510;BME280;48558;48.242;11.654;2022-12-22T09:44:48;95810.59;;;9.04;100.00
62510;BME280;48558;48.242;11.654;2022-12-22T09:49:05;95786.84;;;8.55;100.00
62510;BME280;48558;48.242;11.654;2022-12-22T09:53:22;95770.94;;;8.41;100.00
62510;BME280;48558;48.242;11.654;2022-12-22T09:57:42;95766.75;;;8.73;100.00
62510;BME280;48558;48.242;11.654;2022-12-22T10:02:14;95770.44;;;8.79;100.00
62510;BME280;48558;48.242;11.654;2022-12-22T10:06:46;95757.91;;;9.11;100.00
62510;BME280;48558;48.242;11.654;2022-12-22T10:10:59;95745.50;;;9.39;100.00
62510;BME280;48558;48.242;11.654;2022-12-22T10:15:12;95734.94;;;9.37;100.00
62510;BME280;48558;48.242;11.654;2022-12-22T10:19:32;95735.59;;;9.56;100.00
62510;BME280;48558;48.242;11.654;2022-12-22T10:23:51;95732.94;;;9.85;100.00
62510;BME280;48558;48.242;11.654;2022-12-22T10:28:11;95734.44;;;10.10;100.00
62510;BME280;48558;48.242;11.654;2022-12-22T10:32:26;95730.56;;;10.17;100.00
62510;BME280;48558;48.242;11.654;2022-12-22T10:36:41;95729.06;;;10.30;100.00
62510;BME280;48558;48.242;11.654;2022-12-22T10:41:21;95715.63;;;10.23;100.00
62510;BME280;48558;48.242;11.654;2022-12-22T10:45:36;95711.53;;;10.48;100.00
62510;BME280;48558;48.242;11.654;2022-12-22T10:49:50;95714.50;;;10.30;100.00
62510;BME280;48558;48.242;11.654;2022-12-22T10:54:04;95707.75;;;10.31;100.00
62510;BME280;48558;48.242;11.654;2022-12-22T10:58:18;95721.28;;;10.58;100.00
62510;BME280;48558;48.242;11.654;2022-12-22T11:02:34;95719.81;;;10.77;100.00
62510;BME280;48558;48.242;11.654;2022-12-22T11:06:50;95728.31;;;10.73;100.00
62510;BME280;48558;48.242;11.654;2022-12-22T11:11:17;95720.19;;;11.34;100.00
62510;BME280;48558;48.242;11.654;2022-12-22T11:56:44;95698.00;;;8.88;100.00
62510;BME280;48558;48.242;11.654;2022-12-22T12:06:01;95695.97;;;8.97;100.00
62510;BME280;48558;48.242;11.654;2022-12-22T12:10:24;95671.81;;;9.16;100.00
62510;BME280;48558;48.242;11.654;2022-12-22T12:20:02;95668.06;;;9.28;100.00
62510;BME280;48558;48.242;11.654;2022-12-22T12:29:25;95661.72;;;9.60;100.00
62510;BME280;48558;48.242;11.654;2022-12-22T12:33:45;95654.84;;;9.56;100.00
62510;BME280;48558;48.242;11.654;2022-12-22T12:38:07;95645.09;;;9.69;100.00
62510;BME280;48558;48.242;11.654;2022-12-22T12:42:43;95634.22;;;10.04;100.00
62510;BME280;48558;48.242;11.654;2022-12-22T12:51:46;95652.69;;;10.42;100.00
62510;BME280;48558;48.242;11.654;2022-12-22T12:56:02;95644.31;;;10.51;100.00
62510;BME280;48558;48.242;11.654;2022-12-22T13:09:25;95651.28;;;10.81;100.00
62510;BME280;48558;48.242;11.654;2022-12-22T13:19:09;95660.13;;;11.00;100.00
62510;BME280;48558;48.242;11.654;2022-12-22T13:23:22;95671.19;;;11.00;100.00
62510;BME280;48558;48.242;11.654;2022-12-22T13:27:35;95655.84;;;10.99;100.00
62510;BME280;48558;48.242;11.654;2022-12-22T13:31:51;95670.19;;;10.82;100.00
62510;BME280;48558;48.242;11.654;2022-12-22T13:36:21;95672.72;;;10.86;100.00
62510;BME280;48558;48.242;11.654;2022-12-22T13:40:41;95673.78;;;10.89;100.00
62510;BME280;48558;48.242;11.654;2022-12-22T13:44:54;95677.50;;;10.86;100.00
62510;BME280;48558;48.242;11.654;2022-12-22T13:49:09;95672.94;;;10.68;100.00
62510;BME280;48558;48.242;11.654;2022-12-22T13:53:50;95672.94;;;10.82;100.00
62510;BME280;48558;48.242;11.654;2022-12-22T13:58:30;95682.84;;;10.89;100.00
62510;BME280;48558;48.242;11.654;2022-12-22T14:02:46;95682.72;;;10.98;100.00
62510;BME280;48558;48.242;11.654;2022-12-22T14:07:16;95681.78;;;10.87;100.00
62510;BME280;48558;48.242;11.654;2022-12-22T14:11:30;95689.75;;;10.99;100.00
62510;BME280;48558;48.242;11.654;2022-12-22T14:15:43;95669.66;;;10.99;100.00
62510;BME280;48558;48.242;11.654;2022-12-22T14:19:58;95681.53;;;11.19;100.00
62510;BME280;48558;48.242;11.654;2022-12-22T14:24:16;95707.88;;;10.86;100.00
62510;BME280;48558;48.242;11.654;2022-12-22T14:28:36;95700.94;;;10.90;100.00
62510;BME280;48558;48.242;11.654;2022-12-22T14:32:52;95695.88;;;11.03;100.00
62510;BME280;48558;48.242;11.654;2022-12-22T14:37:08;95700.75;;;10.94;100.00
62510;BME280;48558;48.242;11.654;2022-12-22T14:41:28;95691.97;;;10.95;100.00
62510;BME280;48558;48.242;11.654;2022-12-22T14:46:04;95706.47;;;10.90;100.00
62510;BME280;48558;48.242;11.654;2022-12-22T14:50:26;95721.81;;;11.06;100.00
62510;BME280;48558;48.242;11.654;2022-12-22T14:54:39;95729.22;;;11.00;100.00
62510;BME280;48558;48.242;11.654;2022-12-22T14:59:07;95737.84;;;10.87;100.00
62510;BME280;48558;48.242;11.654;2022-12-22T15:03:32;95735.56;;;10.71;100.00
62510;BME280;48558;48.242;11.654;2022-12-22T15:07:48;95749.66;;;10.88;100.00
62510;BME280;48558;48.242;11.654;2022-12-22T15:12:16;95729.94;;;10.80;100.00
62510;BME280;48558;48.242;11.654;2022-12-22T15:16:30;95749.66;;;10.88;100.00
62510;BME280;48558;48.242;11.654;2022-12-22T15:20:42;95755.66;;;10.86;100.00
62510;BME280;48558;48.242;11.654;2022-12-22T15:24:55;95754.31;;;10.81;100.00
62510;BME280;48558;48.242;11.654;2022-12-22T15:29:07;95763.97;;;10.71;100.00
62510;BME280;48558;48.242;11.654;2022-12-22T15:33:20;95769.09;;;10.64;100.00
62510;BME280;48558;48.242;11.654;2022-12-22T15:37:33;95765.38;;;10.52;100.00
62510;BME280;48558;48.242;11.654;2022-12-22T15:41:46;95765.84;;;10.51;100.00
62510;BME280;48558;48.242;11.654;2022-12-22T15:46:10;95770.81;;;10.76;100.00
62510;BME280;48558;48.242;11.654;2022-12-22T15:50:29;95790.63;;;10.74;100.00
62510;BME280;48558;48.242;11.654;2022-12-22T15:54:49;95781.97;;;10.67;100.00
62510;BME280;48558;48.242;11.654;2022-12-22T15:59:15;95784.53;;;10.85;100.00
62510;BME280;48558;48.242;11.654;2022-12-22T16:03:29;95765.47;;;10.72;100.00
62510;BME280;48558;48.242;11.654;2022-12-22T16:07:43;95781.09;;;10.75;100.00
62510;BME280;48558;48.242;11.654;2022-12-22T16:11:56;95783.19;;;10.66;100.00
62510;BME280;48558;48.242;11.654;2022-12-22T16:16:08;95788.91;;;10.77;100.00
62510;BME280;48558;48.242;11.654;2022-12-22T16:20:20;95785.66;;;10.93;100.00
62510;BME280;48558;48.242;11.654;2022-12-22T16:24:34;95785.59;;;10.88;100.00
62510;BME280;48558;48.242;11.654;2022-12-22T16:28:47;95773.28;;;10.74;100.00
62510;BME280;48558;48.242;11.654;2022-12-22T16:32:59;95778.59;;;10.63;100.00
62510;BME280;48558;48.242;11.654;2022-12-22T16:37:12;95774.03;;;10.60;100.00
62510;BME280;48558;48.242;11.654;2022-12-22T16:41:24;95772.59;;;10.50;100.00
62510;BME280;48558;48.242;11.654;2022-12-22T16:45:37;95791.25;;;10.40;100.00
62510;BME280;48558;48.242;11.654;2022-12-22T16:49:50;95801.34;;;10.29;100.00
62510;BME280;48558;48.242;11.654;2022-12-22T16:54:03;95801.28;;;10.38;100.00
62510;BME280;48558;48.242;11.654;2022-12-22T16:58:15;95810.50;;;10.35;100.00
62510;BME280;48558;48.242;11.654;2022-12-22T17:02:38;95806.25;;;10.25;100.00
62510;BME280;48558;48.242;11.654;2022-12-22T17:06:51;95811.84;;;10.16;100.00
62510;BME280;48558;48.242;11.654;2022-12-22T17:11:09;95818.50;;;10.33;100.00
62510;BME280;48558;48.242;11.654;2022-12-22T17:15:26;95801.63;;;10.31;100.00
62510;BME280;48558;48.242;11.654;2022-12-22T17:19:39;95806.78;;;10.38;100.00
62510;BME280;48558;48.242;11.654;2022-12-22T17:23:53;95805.72;;;10.35;100.00
62510;BME280;48558;48.242;11.654;2022-12-22T17:28:09;95822.97;;;10.45;100.00
62510;BME280;48558;48.242;11.654;2022-12-22T17:32:34;95816.88;;;10.41;100.00
62510;BME280;48558;48.242;11.654;2022-12-22T17:36:48;95831.75;;;10.43;100.00
62510;BME280;48558;48.242;11.654;2022-12-22T17:41:00;95809.28;;;10.50;100.00
62510;BME280;48558;48.242;11.654;2022-12-22T17:45:15;95834.00;;;10.45;100.00
62510;BME280;48558;48.242;11.654;2022-12-22T17:49:35;95825.44;;;10.28;100.00
62510;BME280;48558;48.242;11.654;2022-12-22T17:53:48;95831.44;;;10.41;100.00
62510;BME280;48558;48.242;11.654;2022-12-22T17:58:00;95829.88;;;10.26;100.00
62510;BME280;48558;48.242;11.654;2022-12-22T18:02:17;95835.53;;;10.31;100.00
62510;BME280;48558;48.242;11.654;2022-12-22T18:06:33;95829.53;;;10.33;100.00
62510;BME280;48558;48.242;11.654;2022-12-22T18:10:47;95822.91;;;10.16;100.00
62510;BME280;48558;48.242;11.654;2022-12-22T18:14:59;95820.13;;;10.16;100.00
62510;BME280;48558;48.242;11.654;2022-12-22T18:19:11;95814.31;;;10.14;100.00
62510;BME280;48558;48.242;11.654;2022-12-22T18:23:27;95805.50;;;10.00;100.00
62510;BME280;48558;48.242;11.654;2022-12-22T18:27:41;95801.97;;;10.00;100.00
62510;BME280;48558;48.242;11.654;2022-12-22T18:31:53;95808.22;;;9.86;100.00
62510;BME280;48558;48.242;11.654;2022-12-22T18:36:13;95810.72;;;9.75;100.00
62510;BME280;48558;48.242;11.654;2022-12-22T18:40:31;95808.44;;;9.73;100.00
62510;BME280;48558;48.242;11.654;2022-12-22T18:44:44;95802.44;;;9.75;100.00
62510;BME280;48558;48.242;11.654;2022-12-22T18:48:57;95811.53;;;9.66;100.00
62510;BME280;48558;48.242;11.654;2022-12-22T18:53:27;95807.78;;;9.55;100.00
62510;BME280;48558;48.242;11.654;2022-12-22T18:57:40;95807.31;;;9.56;100.00
62510;BME280;48558;48.242;11.654;2022-12-22T19:02:01;95802.44;;;9.51;100.00
62510;BME280;48558;48.242;11.654;2022-12-22T19:06:17;95784.44;;;9.32;100.00
62510;BME280;48558;48.242;11.654;2022-12-22T19:10:38;95783.16;;;9.09;100.00
62510;BME280;48558;48.242;11.654;2022-12-22T19:15:03;95782.91;;;8.98;100.00
62510;BME280;48558;48.242;11.654;2022-12-22T19:19:17;95777.13;;;8.87;100.00
62510;BME280;48558;48.242;11.654;2022-12-22T19:23:31;95765.94;;;8.91;100.00
62510;BME280;48558;48.242;11.654;2022-12-22T19:27:46;95759.88;;;8.68;100.00
62510;BME280;48558;48.242;11.654;2022-12-22T19:31:59;95761.16;;;8.49;100.00
62510;BME280;48558;48.242;11.654;2022-12-22T19:36:14;95757.19;;;8.41;100.00
62510;BME280;48558;48.242;11.654;2022-12-22T19:40:30;95745.13;;;8.39;100.00
62510;BME280;48558;48.242;11.654;2022-12-22T19:44:44;95749.41;;;8.40;100.00
62510;BME280;48558;48.242;11.654;2022-12-22T19:48:57;95744.78;;;8.46;100.00
62510;BME280;48558;48.242;11.654;2022-12-22T19:53:10;95746.47;;;8.52;100.00
62510;BME280;48558;48.242;11.654;2022-12-22T19:57:23;95736.09;;;8.47;100.00
62510;BME280;48558;48.242;11.654;2022-12-22T20:01:35;95735.75;;;8.63;100.00
62510;BME280;48558;48.242;11.654;2022-12-22T20:05:48;95729.00;;;8.64;100.00
62510;BME280;48558;48.242;11.654;2022-12-22T20:10:01;95737.53;;;8.76;100.00
62510;BME280;48558;48.242;11.654;2022-12-22T20:14:16;95731.38;;;8.81;100.00
62510;BME280;48558;48.242;11.654;2022-12-22T20:18:42;95733.53;;;8.77;100.00
62510;BME280;48558;48.242;11.654;2022-12-22T20:22:58;95739.47;;;8.93;100.00
62510;BME280;48558;48.242;11.654;2022-12-22T20:27:20;95724.53;;;9.09;100.00
62510;BME280;48558;48.242;11.654;2022-12-22T20:31:33;95720.84;;;9.12;100.00
62510;BME280;48558;48.242;11.654;2022-12-22T20:35:47;95715.47;;;9.17;100.00
62510;BME280;48558;48.242;11.654;2022-12-22T20:40:00;95697.34;;;9.25;100.00
62510;BME280;48558;48.242;11.654;2022-12-22T20:44:12;95693.16;;;9.30;100.00
62510;BME280;48558;48.242;11.654;2022-12-22T20:48:37;95687.16;;;9.41;100.00
62510;BME280;48558;48.242;11.654;2022-12-22T20:52:50;95695.22;;;9.44;100.00
62510;BME280;48558;48.242;11.654;2022-12-22T20:57:03;95693.88;;;9.63;100.00
62510;BME280;48558;48.242;11.654;2022-12-22T21:01:15;95692.06;;;9.60;100.00
62510;BME280;48558;48.242;11.654;2022-12-22T21:05:28;95680.38;;;9.65;100.00
62510;BME280;48558;48.242;11.654;2022-12-22T21:09:41;95678.44;;;9.57;100.00
62510;BME280;48558;48.242;11.654;2022-12-22T21:13:54;95672.19;;;9.56;100.00
62510;BME280;48558;48.242;11.654;2022-12-22T21:18:18;95681.03;;;9.60;100.00
62510;BME280;48558;48.242;11.654;2022-12-22T21:22:31;95674.66;;;9.69;100.00
62510;BME280;48558;48.242;11.654;2022-12-22T21:26:46;95681.13;;;9.66;100.00
62510;BME280;48558;48.242;11.654;2022-12-22T21:31:00;95674.50;;;9.72;100.00
62510;BME280;48558;48.242;11.654;2022-12-22T21:35:18;95679.63;;;9.79;100.00
62510;BME280;48558;48.242;11.654;2022-12-22T21:39:37;95665.09;;;9.79;100.00
62510;BME280;48558;48.242;11.654;2022-12-22T21:43:53;95665.16;;;9.70;100.00
62510;BME280;48558;48.242;11.654;2022-12-22T21:48:05;95665.75;;;9.74;100.00
62510;BME280;48558;48.242;11.654;2022-12-22T21:52:18;95659.25;;;9.62;100.00
62510;BME280;48558;48.242;11.654;2022-12-22T21:56:30;95655.06;;;9.67;100.00
62510;BME280;48558;48.242;11.654;2022-12-22T22:00:52;95639.94;;;9.62;100.00
62510;BME280;48558;48.242;11.654;2022-12-22T22:05:04;95639.28;;;9.67;100.00
62510;BME280;48558;48.242;11.654;2022-12-22T22:09:17;95640.50;;;9.66;100.00
62510;BME280;48558;48.242;11.654;2022-12-22T22:13:29;95628.44;;;9.64;100.00
62510;BME280;48558;48.242;11.654;2022-12-22T22:17:41;95639.44;;;9.49;100.00
62510;BME280;48558;48.242;11.654;2022-12-22T22:21:54;95626.16;;;9.38;100.00
62510;BME280;48558;48.242;11.654;2022-12-22T22:26:16;95615.97;;;9.30;100.00
62510;BME280;48558;48.242;11.654;2022-12-22T22:30:29;95606.56;;;9.22;100.00
62510;BME280;48558;48.242;11.654;2022-12-22T22:34:41;95602.09;;;9.24;100.00
62510;BME280;48558;48.242;11.654;2022-12-22T22:38:54;95594.06;;;9.12;100.00
62510;BME280;48558;48.242;11.654;2022-12-22T22:43:06;95586.63;;;9.03;100.00
62510;BME280;48558;48.242;11.654;2022-12-22T22:47:18;95581.19;;;8.94;100.00
62510;BME280;48558;48.242;11.654;2022-12-22T22:51:41;95574.09;;;8.79;100.00
62510;BME280;48558;48.242;11.654;2022-12-22T22:55:53;95561.38;;;8.81;100.00
62510;BME280;48558;48.242;11.654;2022-12-22T23:00:07;95554.03;;;8.78;100.00
62510;BME280;48558;48.242;11.654;2022-12-22T23:04:20;95542.78;;;8.67;100.00
62510;BME280;48558;48.242;11.654;2022-12-22T23:08:34;95557.25;;;8.53;100.00
62510;BME280;48558;48.242;11.654;2022-12-22T23:12:46;95544.53;;;8.55;100.00
62510;BME280;48558;48.242;11.654;2022-12-22T23:16:59;95536.84;;;8.59;100.00
62510;BME280;48558;48.242;11.654;2022-12-22T23:21:11;95515.88;;;8.62;100.00
62510;BME280;48558;48.242;11.654;2022-12-22T23:25:23;95523.97;;;8.65;100.00
62510;BME280;48558;48.242;11.654;2022-12-22T23:29:36;95523.28;;;8.56;100.00
62510;BME280;48558;48.242;11.654;2022-12-22T23:33:48;95513.13;;;8.62;100.00
62510;BME280;48558;48.242;11.654;2022-12-22T23:38:01;95510.22;;;8.65;100.00
62510;BME280;48558;48.242;11.654;2022-12-22T23:42:14;95512.31;;;8.71;100.00
62510;BME280;48558;48.242;11.654;2022-12-22T23:46:32;95523.34;;;8.71;100.00
62510;BME280;48558;48.242;11.654;2022-12-22T23:50:45;95486.66;;;8.64;100.00
62510;BME280;48558;48.242;11.654;2022-12-22T23:55:08;95504.75;;;8.56;100.00